createdAt,value
2019-05-21T00:01:06.751Z,15.00
2019-05-21T00:06:10.725Z,15.00
2019-05-21T00:11:13.485Z,15.00
2019-05-21T00:16:16.095Z,15.00
2019-05-21T00:21:34.600Z,15.00
2019-05-21T00:26:42.176Z,15.00
2019-05-21T00:32:21.802Z,14.90
2019-05-21T00:38:01.585Z,14.90
2019-05-21T00:43:05.589Z,14.90
2019-05-21T00:48:08.395Z,14.80
2019-05-21T00:53:11.167Z,14.80
2019-05-21T00:58:13.917Z,14.80
2019-05-21T01:03:16.634Z,14.70
2019-05-21T01:08:19.381Z,14.70
2019-05-21T01:13:22.060Z,14.70
2019-05-21T01:18:25.936Z,14.70
2019-05-21T01:23:29.016Z,14.60
2019-05-21T01:28:31.948Z,14.60
2019-05-21T01:33:34.779Z,14.60
2019-05-21T01:38:37.433Z,14.60
2019-05-21T01:43:40.327Z,14.50
2019-05-21T01:48:43.225Z,14.50
2019-05-21T01:53:45.819Z,14.50
2019-05-21T01:58:48.418Z,14.50
2019-05-21T02:03:51.277Z,14.50
2019-05-21T02:08:54.280Z,14.50
2019-05-21T02:13:57.033Z,14.50
2019-05-21T02:18:59.747Z,14.50
2019-05-21T02:24:03.410Z,14.40
2019-05-21T02:29:06.064Z,14.40
2019-05-21T02:34:08.664Z,14.40
2019-05-21T02:39:11.441Z,14.30
2019-05-21T02:44:14.024Z,14.30
2019-05-21T02:49:16.725Z,14.20
2019-05-21T02:54:19.540Z,14.10
2019-05-21T02:59:22.215Z,14.10
2019-05-21T03:04:24.967Z,14.10
2019-05-21T03:09:29.834Z,14.10
2019-05-21T03:14:32.609Z,14.10
2019-05-21T03:19:35.280Z,14.10
2019-05-21T03:24:38.089Z,14.10
2019-05-21T03:29:40.756Z,14.20
2019-05-21T03:34:43.480Z,14.20
2019-05-21T03:39:46.323Z,14.30
2019-05-21T03:44:59.602Z,14.30
2019-05-21T03:49:53.425Z,14.40
2019-05-21T03:54:56.201Z,14.50
2019-05-21T03:59:58.933Z,14.60
2019-05-21T04:05:02.052Z,14.70
2019-05-21T04:10:13.219Z,14.80
2019-05-21T04:15:18.531Z,14.90
2019-05-21T04:20:21.380Z,15.00
2019-05-21T04:25:24.404Z,15.20
2019-05-21T04:30:27.194Z,15.20
2019-05-21T04:35:29.881Z,15.20
2019-05-21T04:40:32.611Z,15.10
2019-05-21T04:45:35.298Z,15.20
2019-05-21T04:50:38.113Z,15.10
2019-05-21T04:55:40.826Z,15.10
2019-05-21T05:00:43.573Z,15.00
2019-05-21T05:05:46.256Z,14.90
2019-05-21T05:10:49.521Z,15.00
2019-05-21T05:15:52.306Z,15.10
2019-05-21T05:20:55.011Z,15.20
2019-05-21T05:25:57.693Z,15.30
2019-05-21T05:31:00.449Z,15.50
2019-05-21T05:36:03.182Z,15.80
2019-05-21T05:41:05.850Z,15.90
2019-05-21T05:46:08.517Z,16.00
2019-05-21T05:51:11.527Z,16.20
2019-05-21T05:56:14.506Z,16.30
2019-05-21T06:01:17.338Z,16.50
2019-05-21T06:06:19.879Z,16.70
2019-05-21T06:11:22.767Z,16.90
2019-05-21T06:16:26.619Z,17.20
2019-05-21T06:21:29.444Z,17.40
2019-05-21T06:26:32.187Z,17.50
2019-05-21T06:31:35.020Z,17.70
2019-05-21T06:36:37.716Z,17.80
2019-05-21T06:41:40.552Z,17.80
2019-05-21T06:46:43.274Z,18.00
2019-05-21T06:51:45.965Z,18.20
2019-05-21T06:56:48.626Z,18.40
2019-05-21T07:01:51.358Z,18.40
2019-05-21T07:06:54.057Z,18.40
2019-05-21T07:11:56.735Z,18.20
2019-05-21T07:16:59.395Z,18.30
2019-05-21T07:22:12.108Z,18.70
2019-05-21T07:27:06.530Z,19.00
2019-05-21T07:32:09.329Z,19.40
2019-05-21T07:37:12.007Z,19.80
2019-05-21T07:42:15.808Z,20.10
2019-05-21T07:47:21.249Z,20.30
2019-05-21T07:52:24.028Z,20.50
2019-05-21T07:57:26.909Z,20.80
2019-05-21T08:02:34.283Z,20.80
2019-05-21T08:07:37.126Z,20.80
2019-05-21T08:12:40.187Z,21.20
2019-05-21T08:17:42.945Z,21.30
2019-05-21T08:22:45.677Z,21.00
2019-05-21T08:27:48.449Z,20.60
2019-05-21T08:32:51.247Z,20.50
2019-05-21T08:37:54.110Z,20.50
2019-05-21T08:42:56.838Z,20.60
2019-05-21T08:47:59.716Z,21.00
2019-05-21T08:53:02.962Z,21.50
2019-05-21T08:58:07.550Z,21.70
2019-05-21T09:03:10.587Z,22.40
2019-05-21T09:08:13.488Z,23.20
2019-05-21T09:13:17.940Z,23.70
2019-05-21T09:18:20.950Z,23.80
2019-05-21T09:23:23.585Z,23.90
2019-05-21T09:28:26.498Z,24.10
2019-05-21T09:33:31.039Z,24.00
2019-05-21T09:38:34.248Z,23.70
2019-05-21T09:43:37.323Z,23.30
2019-05-21T09:48:42.215Z,23.20
2019-05-21T09:53:44.885Z,22.90
2019-05-21T09:58:47.732Z,22.80
2019-05-21T10:03:53.443Z,22.80
2019-05-21T10:08:56.190Z,23.20
2019-05-21T10:13:58.907Z,24.30
2019-05-21T10:19:01.632Z,25.50
2019-05-21T10:24:04.612Z,26.00
2019-05-21T10:29:07.208Z,25.50
2019-05-21T10:34:12.993Z,25.10
2019-05-21T10:39:14.623Z,25.20
2019-05-21T10:44:17.353Z,24.90
2019-05-21T10:49:20.115Z,24.90
2019-05-21T10:54:22.887Z,25.10
2019-05-21T10:59:25.604Z,25.20
2019-05-21T11:04:35.825Z,25.30
2019-05-21T11:09:38.667Z,25.70
2019-05-21T11:14:42.162Z,25.80
2019-05-21T11:19:44.965Z,25.70
2019-05-21T11:24:47.636Z,25.90
2019-05-21T11:29:50.414Z,26.30
2019-05-21T11:34:52.976Z,26.50
2019-05-21T11:39:55.764Z,26.50
2019-05-21T11:44:58.528Z,26.30
2019-05-21T11:50:01.206Z,25.20
2019-05-21T11:55:16.287Z,24.70
2019-05-21T12:00:22.907Z,24.80
2019-05-21T12:05:25.881Z,25.60
2019-05-21T12:10:28.639Z,26.00
2019-05-21T12:15:32.503Z,26.50
2019-05-21T12:20:37.388Z,26.70
2019-05-21T12:25:39.915Z,26.90
2019-05-21T12:30:42.664Z,27.70
2019-05-21T12:35:45.304Z,28.60
2019-05-21T12:40:48.000Z,28.10
2019-05-21T12:45:50.769Z,28.40
2019-05-21T12:50:54.501Z,29.10
2019-05-21T12:55:57.229Z,30.40
2019-05-21T13:00:59.976Z,30.60
2019-05-21T13:06:02.851Z,32.20
2019-05-21T13:11:05.581Z,32.20
2019-05-21T13:16:08.444Z,31.90
2019-05-21T13:21:11.202Z,33.40
2019-05-21T13:26:13.887Z,33.00
2019-05-21T13:31:16.717Z,34.00
2019-05-21T13:36:19.507Z,33.70
2019-05-21T13:41:22.230Z,33.20
2019-05-21T13:46:24.853Z,33.40
2019-05-21T13:51:27.690Z,32.90
2019-05-21T13:56:31.197Z,31.20
2019-05-21T14:01:41.275Z,32.20
2019-05-21T14:06:43.550Z,31.80
2019-05-21T14:11:46.414Z,29.40
2019-05-21T14:16:50.028Z,28.20
2019-05-21T14:21:52.738Z,27.20
2019-05-21T14:26:55.483Z,25.20
2019-05-21T14:31:58.256Z,23.00
2019-05-21T14:37:00.991Z,20.40
2019-05-21T14:42:03.744Z,18.70
2019-05-21T14:47:06.388Z,18.00
2019-05-21T14:52:09.699Z,17.80
2019-05-21T14:57:12.501Z,17.80
2019-05-21T15:02:15.203Z,17.60
2019-05-21T15:07:17.930Z,17.60
2019-05-21T15:12:20.648Z,17.50
2019-05-21T15:17:23.610Z,17.50
2019-05-21T15:22:26.413Z,17.30
2019-05-21T15:27:29.164Z,17.10
2019-05-21T15:32:32.282Z,17.20
2019-05-21T15:37:38.374Z,17.30
2019-05-21T15:42:41.149Z,17.30
2019-05-21T15:47:44.010Z,17.30
2019-05-21T15:52:46.843Z,17.50
2019-05-21T15:57:49.550Z,17.80
2019-05-21T16:02:52.292Z,18.30
2019-05-21T16:07:54.957Z,18.30
2019-05-21T16:12:57.995Z,18.00
2019-05-21T16:18:00.693Z,18.10
2019-05-21T16:23:03.485Z,18.10
2019-05-21T16:28:07.296Z,18.00
2019-05-21T16:33:10.134Z,18.10
2019-05-21T16:38:13.173Z,18.20
2019-05-21T16:43:16.017Z,18.20
2019-05-21T16:48:18.722Z,18.20
2019-05-21T16:53:21.692Z,18.30
2019-05-21T16:58:24.324Z,18.40
2019-05-21T17:03:27.270Z,18.30
2019-05-21T17:08:30.980Z,18.30
2019-05-21T17:13:34.235Z,18.30
2019-05-21T17:18:37.135Z,18.30
2019-05-21T17:23:39.821Z,18.30
2019-05-21T17:28:42.480Z,18.60
2019-05-21T17:33:45.361Z,19.70
2019-05-21T17:38:48.250Z,21.00
2019-05-21T17:43:51.152Z,21.60
2019-05-21T17:48:54.076Z,21.20
2019-05-21T17:53:57.017Z,20.30
2019-05-21T17:59:05.714Z,19.50
2019-05-21T18:04:10.046Z,19.20
2019-05-21T18:09:16.935Z,19.10
2019-05-21T18:14:20.171Z,19.00
2019-05-21T18:19:24.299Z,19.20
2019-05-21T18:24:27.091Z,19.10
2019-05-21T18:29:29.822Z,18.90
2019-05-21T18:34:32.690Z,18.70
2019-05-21T18:39:37.853Z,18.80
2019-05-21T18:44:40.702Z,18.80
2019-05-21T18:49:43.549Z,18.80
2019-05-21T18:54:47.947Z,18.90
2019-05-21T18:59:50.946Z,18.90
2019-05-21T19:04:53.964Z,18.90
2019-05-21T19:10:00.372Z,18.90
2019-05-21T19:15:02.057Z,18.80
2019-05-21T19:20:09.310Z,18.70
2019-05-21T19:25:12.324Z,18.60
2019-05-21T19:30:15.557Z,18.70
2019-05-21T19:35:18.341Z,18.70
2019-05-21T19:40:21.576Z,18.70
2019-05-21T19:45:24.548Z,18.70
2019-05-21T19:50:27.386Z,18.70
2019-05-21T19:55:30.555Z,18.60
2019-05-21T20:00:35.183Z,18.50
2019-05-21T20:05:39.186Z,18.50
2019-05-21T20:10:42.616Z,18.40
2019-05-21T20:15:45.505Z,18.30
2019-05-21T20:20:50.285Z,18.20
2019-05-21T20:25:56.816Z,18.20
2019-05-21T20:31:00.603Z,18.20
2019-05-21T20:36:03.492Z,18.10
2019-05-21T20:41:06.987Z,18.10
2019-05-21T20:46:09.928Z,18.00
2019-05-21T20:51:12.681Z,18.10
2019-05-21T20:56:16.312Z,18.10
2019-05-21T21:01:19.471Z,18.10
2019-05-21T21:06:34.850Z,18.10
2019-05-21T21:11:28.731Z,18.10
2019-05-21T21:16:31.610Z,18.10
2019-05-21T21:21:35.269Z,18.00
2019-05-21T21:26:38.348Z,17.90
2019-05-21T21:31:41.077Z,18.00
2019-05-21T21:36:43.967Z,17.90
2019-05-21T21:41:47.772Z,17.80
2019-05-21T21:46:50.468Z,17.80
2019-05-21T21:51:53.363Z,17.80
2019-05-21T21:56:57.252Z,17.80
2019-05-21T22:02:09.699Z,17.70
2019-05-21T22:07:12.555Z,17.70
2019-05-21T22:12:17.863Z,17.60
2019-05-21T22:17:20.795Z,17.60
2019-05-21T22:22:23.641Z,17.60
2019-05-21T22:27:26.379Z,17.60
2019-05-21T22:32:28.972Z,17.60
2019-05-21T22:37:32.731Z,17.60
2019-05-21T22:42:35.525Z,17.50
2019-05-21T22:47:38.530Z,17.40
2019-05-21T22:52:41.476Z,17.30
2019-05-21T22:57:44.157Z,17.20
2019-05-21T23:02:47.658Z,17.20
2019-05-21T23:07:50.499Z,17.10
2019-05-21T23:12:56.689Z,17.00
2019-05-21T23:17:59.616Z,16.90
2019-05-21T23:23:07.129Z,16.80
2019-05-21T23:28:10.290Z,16.60
2019-05-21T23:33:13.828Z,16.50
2019-05-21T23:38:18.568Z,16.50
2019-05-21T23:43:21.563Z,16.40
2019-05-21T23:48:25.005Z,16.40
2019-05-21T23:53:27.800Z,16.40
2019-05-21T23:58:31.110Z,16.40
